Terminal Aerodrome Forecast
Issued by NWS

Home | Current Version | Previous Version | Graphics & Text | Print | Product List | Glossary On
Versions: 1 2 3 4 5 6 7 8 9 10 11 12 13
886
FTUS43 KICT 022326
TAFHUT
TAF
KHUT 022326Z 0300/0324 30024G32KT P6SM OVC020
     FM030200 31021G29KT P6SM OVC020
     FM030900 32017KT P6SM OVC025
     FM031200 32017KT P6SM OVC045
     FM031400 32015G23KT P6SM SCT035 SCT150
     FM032200 32011KT P6SM SCT250=

USA.gov is the U.S. government's official web portal to all federal, state and local government web resources and services.